首页
METAR-TAF:

METAR-TAF

机场 :

呼和浩特白塔国际机场

呼和浩特, 中华人民共和国

纬度: 40-49N, 经度: 111-41E, 海拔: 1065米

当前天气观测

该预报发布于55分钟前的03:00 UTC
风速6节,风向多变
温度 25°C
湿度 22%
气压 1010 hPa
能见度10公里或以上
1500米以下无云,无积雨云

METAR: ZBHH 280300Z VRB03MPS CAVOK 25/02 Q1010 BECMG TL0430 24006MPS

时间: 11:55 (03:55 UTC)

预报

该预报发布于6小时和54分钟前的21:01 UTC
预报有效从28日的 00点(UTC)到 28日的 24点(UTC)
风速8节,风向西南
能见度10公里或以上
1500米以下无云,无积雨云
短暂存在
从 28日的 19点(UTC)到 28日的 24点(UTC)
风速19节,风向北转西北,有时为33节阵风
少量云层高于4000英尺, 积雨云.
少量云层高于4000英尺
雷暴, 雨,

TAF: ZBHH 272101Z 2800/2824 23004MPS CAVOK TX30/2807Z TN11/2822Z TEMPO 2819/2824 33010G17MPS TSRA FEW040CB FEW040

超过4000个机场的气象观测和天气预报(METAR&TAF报告)。

可查询的气象台以黄色和红色小点在地图上表示。

将鼠标移到小点上方,可查看气象台名称。

然后点击查看天气观测和预报。

如需切换地图:点击带黑十字的绿色按钮放大地图;点击带横线的绿色按钮缩小地图;或者点击绿色箭头查看邻近地区的地图。


METAR-TAF: